Time;durP1;ratioP1;P1;durP2;ratioP2;P2;SDS_P1;SDS_P2;PMS_P1;PMS_P2;Temp;Humidity;BMP_temperature;BMP_pressure;BME280_temperature;BME280_humidity;BME280_pressure;Samples;Min_cycle;Max_cycle;Signal;HPM_P1;HPM_P2
2021/07/12 00:00:33;;;;;;;;;;;;;;;24.15;58.58;98949.28;2079894;28;19965;-39
2021/07/12 00:01:34;;;;;;;;;;;;;;;24.16;58.67;98951.00;2082373;28;19955;-39
2021/07/12 00:02:34;;;;;;;;;;;;;;;24.15;58.55;98949.28;2083107;28;20346;-40
2021/07/12 00:03:34;;;;;;;;;;;;;;;24.16;58.44;98953.75;2080592;28;19916;-39
2021/07/12 00:04:36;;;;;;;;;;;;;;;24.16;58.60;98951.00;2083929;28;19923;-39
2021/07/12 00:05:40;;;;;;;;;;;;;;;24.15;58.36;98952.03;2084063;28;19916;-39
2021/07/12 00:06:41;;;;;;;;;;;;;;;24.15;58.60;98950.13;2085448;28;20569;-39
2021/07/12 00:07:41;;;;;;;;;;;;;;;24.16;58.60;98951.00;2084970;28;19974;-39
2021/07/12 00:08:41;;;;;;;;;;;;;;;24.15;58.56;98946.53;2080423;28;19928;-39
2021/07/12 00:09:42;;;;;;;;;;;;;;;24.14;58.54;98953.94;2083160;28;19939;-40
2021/07/12 00:10:42;;;;;;;;;;;;;;;24.15;58.39;98943.78;2078465;28;20209;-40
2021/07/12 00:11:42;;;;;;;;;;;;;;;24.15;58.63;98946.53;2083672;28;19939;-39
2021/07/12 00:12:43;;;;;;;;;;;;;;;24.16;58.41;98943.56;2085004;28;20047;-39
2021/07/12 00:13:43;;;;;;;;;;;;;;;24.15;58.52;98949.28;2080317;28;20164;-41
2021/07/12 00:14:44;;;;;;;;;;;;;;;24.15;58.60;98949.28;2077161;28;20216;-40
2021/07/12 00:15:44;;;;;;;;;;;;;;;24.16;58.51;98962.00;2079811;28;19978;-40
2021/07/12 00:16:45;;;;;;;;;;;;;;;24.15;58.76;98960.28;2079593;28;20444;-39
2021/07/12 00:17:46;;;;;;;;;;;;;;;24.15;58.75;98955.63;2085301;28;19916;-40
2021/07/12 00:18:46;;;;;;;;;;;;;;;24.15;58.65;98960.28;2083452;28;19917;-39
2021/07/12 00:19:47;;;;;;;;;;;;;;;24.15;58.69;98960.28;2078591;28;19920;-39
2021/07/12 00:20:47;;;;;;;;;;;;;;;24.14;58.66;98955.88;2077336;28;20311;-39
2021/07/12 00:21:47;;;;;;;;;;;;;;;24.15;58.87;98954.78;2084012;28;19913;-39
2021/07/12 00:22:49;;;;;;;;;;;;;;;24.14;58.65;98953.94;2085445;28;20271;-39
2021/07/12 00:23:49;;;;;;;;;;;;;;;24.14;58.75;98964.13;2083726;28;19999;-39
2021/07/12 00:24:49;;;;;;;;;;;;;;;24.14;58.80;98964.13;2083072;28;19916;-39
2021/07/12 00:25:50;;;;;;;;;;;;;;;24.14;58.92;98964.13;2082919;28;19917;-39
2021/07/12 00:26:50;;;;;;;;;;;;;;;24.14;58.71;98964.97;2085636;28;20434;-40
2021/07/12 00:27:50;;;;;;;;;;;;;;;24.14;58.66;98964.13;2084230;28;19905;-40
2021/07/12 00:28:51;;;;;;;;;;;;;;;24.14;58.72;98966.88;2085505;28;19927;-40
2021/07/12 00:29:51;;;;;;;;;;;;;;;24.14;58.62;98969.63;2083628;28;19909;-39
2021/07/12 00:30:52;;;;;;;;;;;;;;;24.14;58.69;98961.38;2085338;28;20212;-40
2021/07/12 00:31:52;;;;;;;;;;;;;;;24.14;58.64;98962.22;2081315;28;19951;-39
2021/07/12 00:32:53;;;;;;;;;;;;;;;24.14;58.63;98962.22;2078550;28;19921;-40
2021/07/12 00:33:53;;;;;;;;;;;;;;;24.14;58.57;98964.13;2082484;28;19931;-39
2021/07/12 00:34:54;;;;;;;;;;;;;;;24.14;58.79;98967.72;2081583;28;19948;-39
2021/07/12 00:35:54;;;;;;;;;;;;;;;24.15;58.58;98971.31;2085865;28;19912;-39
2021/07/12 00:36:55;;;;;;;;;;;;;;;24.15;58.70;98971.31;2084530;28;19917;-39
2021/07/12 00:37:55;;;;;;;;;;;;;;;24.15;58.58;98976.81;2083910;28;19927;-39
2021/07/12 00:38:56;;;;;;;;;;;;;;;24.15;58.74;98974.91;2083661;28;19913;-39
2021/07/12 00:39:56;;;;;;;;;;;;;;;24.14;58.34;98986.16;2082977;28;19916;-39
2021/07/12 00:40:56;;;;;;;;;;;;;;;24.14;58.83;98980.63;2086409;28;20008;-39
2021/07/12 00:41:57;;;;;;;;;;;;;;;24.12;58.67;98972.56;2082463;28;19948;-39
2021/07/12 00:42:58;;;;;;;;;;;;;;;24.13;58.65;98984.44;2080894;28;20263;-39
2021/07/12 00:43:58;;;;;;;;;;;;;;;24.13;58.71;98974.28;2085775;28;20311;-39
2021/07/12 00:44:58;;;;;;;;;;;;;;;24.13;58.73;98967.91;2078031;28;20200;-39
2021/07/12 00:45:59;;;;;;;;;;;;;;;24.13;58.46;98977.03;2082665;28;20385;-39
2021/07/12 00:46:59;;;;;;;;;;;;;;;24.13;58.55;98976.19;2084193;28;19985;-39
2021/07/12 00:47:59;;;;;;;;;;;;;;;24.12;58.68;98972.56;2083026;28;20397;-40
2021/07/12 00:49:00;;;;;;;;;;;;;;;24.12;58.76;98966.22;2085098;28;20327;-40
2021/07/12 00:50:00;;;;;;;;;;;;;;;24.12;58.49;98963.47;2085501;28;19912;-39
2021/07/12 00:51:00;;;;;;;;;;;;;;;24.12;58.55;98960.72;2082997;28;19920;-39
2021/07/12 00:52:01;;;;;;;;;;;;;;;24.12;58.55;98952.47;2086381;28;19917;-40
2021/07/12 00:53:02;;;;;;;;;;;;;;;24.11;58.71;98957.13;2079605;28;20305;-39
2021/07/12 00:54:03;;;;;;;;;;;;;;;24.11;58.74;98957.13;2079474;28;20276;-40
2021/07/12 00:55:06;;;;;;;;;;;;;;;24.10;58.71;98963.69;2084773;28;20057;-39
2021/07/12 00:56:08;;;;;;;;;;;;;;;24.12;58.71;98977.25;2081621;28;20235;-39
2021/07/12 00:57:08;;;;;;;;;;;;;;;24.12;58.43;98977.25;2086055;28;19912;-40
2021/07/12 00:58:09;;;;;;;;;;;;;;;24.13;58.56;98984.44;2082574;28;20348;-39
2021/07/12 00:59:10;;;;;;;;;;;;;;;24.13;58.72;98973.41;2084952;28;19921;-39
2021/07/12 01:00:11;;;;;;;;;;;;;;;24.13;58.67;98973.41;2083057;28;20358;-39
2021/07/12 01:01:12;;;;;;;;;;;;;;;24.13;58.73;98973.41;2084329;28;19908;-39
2021/07/12 01:02:12;;;;;;;;;;;;;;;24.13;58.74;98973.41;2085845;28;19905;-39
2021/07/12 01:03:13;;;;;;;;;;;;;;;24.10;58.79;98974.69;2080568;28;19990;-39
2021/07/12 01:04:14;;;;;;;;;;;;;;;24.12;58.53;98982.75;2081909;28;19915;-39
2021/07/12 01:05:16;;;;;;;;;;;;;;;24.11;58.82;98987.41;2078826;28;19922;-39
2021/07/12 01:06:16;;;;;;;;;;;;;;;24.11;58.63;98981.06;2079444;28;19920;-39
2021/07/12 01:07:16;;;;;;;;;;;;;;;24.12;58.82;98971.75;2079373;28;19917;-39
2021/07/12 01:08:19;;;;;;;;;;;;;;;24.11;58.66;98964.56;2082868;28;20448;-39
2021/07/12 01:09:19;;;;;;;;;;;;;;;24.10;58.85;98979.34;2083362;28;20175;-40
2021/07/12 01:10:21;;;;;;;;;;;;;;;24.11;58.71;98975.56;2083063;28;19938;-40
2021/07/12 01:11:31;;;;;;;;;;;;;;;24.11;58.91;98975.56;2083391;28;19924;-39
2021/07/12 01:12:41;;;;;;;;;;;;;;;24.11;58.84;98981.91;2079461;28;20172;-39
2021/07/12 01:13:41;;;;;;;;;;;;;;;24.10;58.59;98990.38;2084770;28;20327;-39
2021/07/12 01:15:01;;;;;;;;;;;;;;;24.10;58.70;98984.84;2082962;28;19920;-39
2021/07/12 01:16:10;;;;;;;;;;;;;;;24.11;58.73;98992.06;2084382;28;19922;-39
2021/07/12 01:17:14;;;;;;;;;;;;;;;24.11;58.73;98994.84;2081245;28;20260;-40
2021/07/12 01:18:29;;;;;;;;;;;;;;;24.10;58.78;99004.13;2079112;28;19916;-39
2021/07/12 01:19:35;;;;;;;;;;;;;;;24.11;58.54;99003.09;2074397;28;20329;-39
2021/07/12 01:20:42;;;;;;;;;;;;;;;24.10;58.87;99010.47;2079116;28;19908;-40
2021/07/12 01:21:48;;;;;;;;;;;;;;;24.11;58.59;99005.84;2085834;28;19941;-39
2021/07/12 01:22:48;;;;;;;;;;;;;;;24.10;58.85;99002.22;2081858;28;20100;-40
2021/07/12 01:23:58;;;;;;;;;;;;;;;24.11;58.96;99008.59;2080361;28;20075;-39
2021/07/12 01:25:09;;;;;;;;;;;;;;;24.10;58.90;99009.63;2083420;28;20477;-39
2021/07/12 01:26:12;;;;;;;;;;;;;;;24.10;58.89;99006.88;2081030;28;20053;-39
2021/07/12 01:27:13;;;;;;;;;;;;;;;24.09;58.81;99007.97;2076825;28;19986;-39
2021/07/12 01:28:16;;;;;;;;;;;;;;;24.10;58.74;99012.38;2082555;28;19990;-41
2021/07/12 01:29:35;;;;;;;;;;;;;;;24.10;58.78;99006.88;2085074;28;20380;-39
2021/07/12 01:30:47;;;;;;;;;;;;;;;24.09;59.02;99006.03;2077450;28;20319;-39
2021/07/12 01:31:56;;;;;;;;;;;;;;;24.08;58.98;99009.00;2084499;28;19920;-39
2021/07/12 01:33:06;;;;;;;;;;;;;;;24.09;58.97;99006.03;2082151;28;20339;-39
2021/07/12 01:34:12;;;;;;;;;;;;;;;24.08;58.84;98993.34;2083747;28;20211;-39
2021/07/12 01:35:18;;;;;;;;;;;;;;;24.09;58.79;98994.19;2080093;28;19923;-39
2021/07/12 01:36:27;;;;;;;;;;;;;;;24.09;58.78;99002.44;2079883;28;20256;-40
2021/07/12 01:37:36;;;;;;;;;;;;;;;24.08;58.85;99003.50;2077728;28;20304;-39
2021/07/12 01:38:41;;;;;;;;;;;;;;;24.08;58.84;99000.72;2082841;28;20349;-39
2021/07/12 01:39:44;;;;;;;;;;;;;;;24.08;59.06;99007.13;2084667;28;20186;-39
2021/07/12 01:40:49;;;;;;;;;;;;;;;24.08;58.85;99003.50;2084152;28;19913;-39
2021/07/12 01:42:10;;;;;;;;;;;;;;;24.08;58.97;99009.00;2079408;28;19923;-39
2021/07/12 01:43:17;;;;;;;;;;;;;;;24.07;58.82;99013.66;2080548;28;19924;-39
2021/07/12 01:44:36;;;;;;;;;;;;;;;24.08;58.87;99014.50;2081026;28;19959;-39
2021/07/12 01:45:45;;;;;;;;;;;;;;;24.08;58.94;99020.00;2078110;28;19912;-39
2021/07/12 01:46:48;;;;;;;;;;;;;;;24.07;58.85;99023.81;2081664;28;20306;-39
2021/07/12 01:47:51;;;;;;;;;;;;;;;24.08;58.80;99020.00;2082012;28;19913;-39
2021/07/12 01:49:13;;;;;;;;;;;;;;;24.08;58.83;99020.88;2077936;28;20369;-39
2021/07/12 01:50:26;;;;;;;;;;;;;;;24.07;58.93;99015.56;2077364;28;20180;-39
2021/07/12 01:51:38;;;;;;;;;;;;;;;24.08;58.85;99020.00;2079308;28;19967;-40
2021/07/12 01:52:41;;;;;;;;;;;;;;;24.07;58.88;99007.31;2080289;28;19920;-39
2021/07/12 01:54:04;;;;;;;;;;;;;;;24.07;58.93;99012.81;2083706;28;19921;-39
2021/07/12 01:55:14;;;;;;;;;;;;;;;24.08;58.78;99009.00;2080226;28;20270;-39
2021/07/12 01:56:25;;;;;;;;;;;;;;;24.07;58.77;99018.31;2083979;28;19916;-39
2021/07/12 01:57:29;;;;;;;;;;;;;;;24.08;58.73;99012.63;2084124;28;19935;-38
2021/07/12 01:58:34;;;;;;;;;;;;;;;24.09;58.56;99021.72;2080707;28;19958;-39
2021/07/12 01:59:34;;;;;;;;;;;;;;;24.08;58.70;99014.50;2084963;28;20339;-39
2021/07/12 02:00:34;;;;;;;;;;;;;;;24.08;58.73;99026.38;2083994;28;19935;-40
2021/07/12 02:01:36;;;;;;;;;;;;;;;24.08;58.93;99025.50;2083217;28;19916;-39
2021/07/12 02:02:38;;;;;;;;;;;;;;;24.07;58.82;99019.16;2081363;28;19912;-39
2021/07/12 02:03:38;;;;;;;;;;;;;;;24.08;58.71;99028.25;2084193;28;19923;-39
2021/07/12 02:04:40;;;;;;;;;;;;;;;24.07;58.79;99027.41;2083784;28;20237;-39
2021/07/12 02:05:40;;;;;;;;;;;;;;;24.07;58.73;99030.16;2084631;28;19986;-39
2021/07/12 02:06:42;;;;;;;;;;;;;;;24.07;58.69;99024.66;2083027;28;19982;-39
2021/07/12 02:07:42;;;;;;;;;;;;;;;24.07;58.84;99026.56;2086098;28;20674;-40
2021/07/12 02:08:45;;;;;;;;;;;;;;;24.07;58.72;99034.84;2081402;28;20471;-39
2021/07/12 02:09:46;;;;;;;;;;;;;;;24.08;58.63;99036.53;2082536;28;19936;-39
2021/07/12 02:10:49;;;;;;;;;;;;;;;24.07;58.73;99046.69;2084770;28;19992;-39
2021/07/12 02:11:49;;;;;;;;;;;;;;;24.07;58.83;99045.84;2080839;28;19931;-39
2021/07/12 02:12:51;;;;;;;;;;;;;;;24.07;58.86;99048.59;2086546;28;20517;-39
2021/07/12 02:13:51;;;;;;;;;;;;;;;24.07;58.83;99054.09;2083217;28;20315;-39
2021/07/12 02:14:52;;;;;;;;;;;;;;;24.07;58.82;99051.34;2082172;28;19924;-39
2021/07/12 02:15:54;;;;;;;;;;;;;;;24.07;58.73;99056.88;2081115;28;20137;-39
2021/07/12 02:16:55;;;;;;;;;;;;;;;24.05;58.82;99054.31;2080739;28;19918;-40
2021/07/12 02:17:57;;;;;;;;;;;;;;;24.07;58.73;99056.88;2085209;28;20414;-39
2021/07/12 02:18:57;;;;;;;;;;;;;;;24.07;58.79;99054.09;2083049;28;19916;-39
2021/07/12 02:20:03;;;;;;;;;;;;;;;24.06;58.84;99050.50;2082376;28;20694;-42
2021/07/12 02:21:04;;;;;;;;;;;;;;;24.06;58.88;99050.50;2082122;28;19960;-42
2021/07/12 02:22:05;;;;;;;;;;;;;;;24.06;58.84;99055.19;2084874;28;19916;-42
2021/07/12 02:23:05;;;;;;;;;;;;;;;24.06;59.02;99052.41;2084764;28;20196;-42
2021/07/12 02:24:06;;;;;;;;;;;;;;;24.06;58.78;99060.69;2083329;28;20239;-42
2021/07/12 02:25:09;;;;;;;;;;;;;;;24.05;58.80;99064.47;2084043;28;20084;-43
2021/07/12 02:26:11;;;;;;;;;;;;;;;24.06;58.77;99071.69;2085404;28;19947;-42
2021/07/12 02:27:11;;;;;;;;;;;;;;;24.05;58.85;99069.97;2079781;28;19916;-42
2021/07/12 02:28:13;;;;;;;;;;;;;;;24.06;58.87;99071.69;2084463;28;20223;-43
2021/07/12 02:29:15;;;;;;;;;;;;;;;24.06;58.87;99074.44;2082951;28;20156;-42
2021/07/12 02:30:16;;;;;;;;;;;;;;;24.06;58.89;99067.03;2080929;28;20273;-47
2021/07/12 02:31:17;;;;;;;;;;;;;;;24.06;59.07;99072.53;2084265;28;20411;-41
2021/07/12 02:32:18;;;;;;;;;;;;;;;24.05;58.92;99070.81;2080091;28;20154;-42
2021/07/12 02:33:19;;;;;;;;;;;;;;;24.05;58.90;99073.56;2084796;28;19908;-42
2021/07/12 02:34:21;;;;;;;;;;;;;;;24.05;59.10;99069.97;2081422;28;19920;-43
2021/07/12 02:35:21;;;;;;;;;;;;;;;24.05;58.99;99076.31;2081495;28;19936;-42
2021/07/12 02:36:22;;;;;;;;;;;;;;;24.05;58.92;99075.47;2085726;28;19955;-42
2021/07/12 02:37:24;;;;;;;;;;;;;;;24.05;59.00;99078.25;2084087;28;19963;-42
2021/07/12 02:38:25;;;;;;;;;;;;;;;24.05;59.03;99083.75;2083166;28;19917;-42
2021/07/12 02:39:26;;;;;;;;;;;;;;;24.05;58.99;99081.84;2084073;28;19921;-42
2021/07/12 02:40:27;;;;;;;;;;;;;;;24.04;58.97;99084.81;2083233;28;19917;-42
2021/07/12 02:41:28;;;;;;;;;;;;;;;24.06;58.96;99090.97;2086187;28;19985;-42
2021/07/12 02:42:29;;;;;;;;;;;;;;;24.04;59.14;99088.41;2084716;28;19922;-42
2021/07/12 02:43:30;;;;;;;;;;;;;;;24.04;59.05;99090.31;2084060;28;20476;-41
2021/07/12 02:44:32;;;;;;;;;;;;;;;24.04;59.11;99095.81;2083734;28;20009;-42
2021/07/12 02:45:35;;;;;;;;;;;;;;;24.05;59.09;99101.09;2081974;28;20265;-42
2021/07/12 02:46:35;;;;;;;;;;;;;;;24.05;59.13;99103.00;2077182;28;19948;-42
2021/07/12 02:47:36;;;;;;;;;;;;;;;24.04;59.25;99107.69;2079608;28;19917;-44
2021/07/12 02:48:37;;;;;;;;;;;;;;;24.04;59.19;99113.19;2084486;28;19920;-42
2021/07/12 02:49:37;;;;;;;;;;;;;;;24.04;59.18;99115.09;2084151;28;19916;-41
2021/07/12 02:50:39;;;;;;;;;;;;;;;24.04;59.17;99117.84;2081634;28;20580;-42
2021/07/12 02:51:52;;;;;;;;;;;;;;;24.05;59.21;99136.03;2077250;28;19928;-42
2021/07/12 02:52:56;;;;;;;;;;;;;;;24.04;59.11;99124.19;2081923;28;20276;-43
2021/07/12 02:54:02;;;;;;;;;;;;;;;24.04;59.24;99143.47;2082449;28;19924;-44
2021/07/12 02:55:02;;;;;;;;;;;;;;;24.04;59.20;99142.63;2085008;28;20127;-43
2021/07/12 02:56:03;;;;;;;;;;;;;;;24.04;59.41;99148.13;2083408;28;20298;-43
2021/07/12 02:57:04;;;;;;;;;;;;;;;24.03;59.40;99144.50;2084782;28;20236;-41
2021/07/12 02:58:04;;;;;;;;;;;;;;;24.04;59.37;99162.72;2078628;28;19927;-44
2021/07/12 02:59:05;;;;;;;;;;;;;;;24.03;59.33;99171.19;2080393;28;19916;-42
2021/07/12 03:00:06;;;;;;;;;;;;;;;24.03;59.30;99166.53;2084938;28;20193;-42
2021/07/12 03:01:07;;;;;;;;;;;;;;;24.02;59.31;99173.09;2079641;28;19956;-42
2021/07/12 03:02:07;;;;;;;;;;;;;;;24.03;59.30;99182.19;2078471;28;19917;-42
2021/07/12 03:03:07;;;;;;;;;;;;;;;24.04;59.36;99183.91;2077656;28;20135;-42
2021/07/12 03:04:08;;;;;;;;;;;;;;;24.03;59.34;99187.69;2079122;28;21942;-43
2021/07/12 03:05:09;;;;;;;;;;;;;;;24.03;59.48;99188.53;2084305;28;19913;-42
2021/07/12 03:06:11;;;;;;;;;;;;;;;24.03;59.37;99196.81;2082262;28;19917;-40
2021/07/12 03:07:14;;;;;;;;;;;;;;;24.02;59.38;99189.59;2084079;28;19909;-43
2021/07/12 03:08:17;;;;;;;;;;;;;;;24.03;59.36;99193.22;2078502;28;19921;-43
2021/07/12 03:09:31;;;;;;;;;;;;;;;24.03;59.37;99193.22;2078766;28;19974;-41
2021/07/12 03:10:34;;;;;;;;;;;;;;;24.04;59.38;99205.94;2082932;28;19987;-42
2021/07/12 03:11:41;;;;;;;;;;;;;;;24.03;59.48;99209.72;2069772;28;20243;-42
2021/07/12 03:12:44;;;;;;;;;;;;;;;24.03;59.38;99205.06;2074038;28;20335;-42
2021/07/12 03:13:53;;;;;;;;;;;;;;;24.02;59.37;99203.38;2082855;28;19916;-42
2021/07/12 03:15:07;;;;;;;;;;;;;;;24.02;59.45;99203.38;2077895;28;20483;-42
2021/07/12 03:16:07;;;;;;;;;;;;;;;24.03;59.33;99198.72;2082806;28;19913;-42
2021/07/12 03:17:08;;;;;;;;;;;;;;;24.02;59.35;99199.78;2082965;28;20192;-41
2021/07/12 03:18:18;;;;;;;;;;;;;;;24.02;59.47;99199.78;2080119;28;20493;-41
2021/07/12 03:19:32;;;;;;;;;;;;;;;24.02;59.44;99197.03;2078192;28;19919;-41
2021/07/12 03:20:34;;;;;;;;;;;;;;;24.02;59.50;99197.03;2075545;28;19916;-42
2021/07/12 03:21:38;;;;;;;;;;;;;;;24.02;59.44;99202.53;2079265;28;19928;-42
2021/07/12 03:22:39;;;;;;;;;;;;;;;24.02;59.53;99205.28;2081301;28;19917;-42
2021/07/12 03:23:41;;;;;;;;;;;;;;;24.02;59.50;99203.38;2083836;28;19920;-42
2021/07/12 03:24:43;;;;;;;;;;;;;;;24.01;59.47;99211.81;2080793;28;20342;-41
2021/07/12 03:25:50;;;;;;;;;;;;;;;24.01;59.63;99217.31;2077656;28;19920;-42
2021/07/12 03:26:53;;;;;;;;;;;;;;;24.00;59.62;99199.97;2078878;28;19917;-41
2021/07/12 03:27:56;;;;;;;;;;;;;;;24.01;59.42;99209.06;2080985;28;20274;-42
2021/07/12 03:28:57;;;;;;;;;;;;;;;24.01;59.52;99200.81;2084050;28;20242;-41
2021/07/12 03:30:00;;;;;;;;;;;;;;;24.01;59.53;99217.31;2082827;28;19924;-42
2021/07/12 03:31:02;;;;;;;;;;;;;;;24.02;59.60;99213.53;2081586;28;20007;-41
2021/07/12 03:32:03;;;;;;;;;;;;;;;24.00;59.49;99212.88;2084599;28;20003;-42
2021/07/12 03:33:04;;;;;;;;;;;;;;;24.00;59.55;99212.88;2084630;28;20285;-42
2021/07/12 03:34:04;;;;;;;;;;;;;;;24.00;59.47;99210.97;2080527;28;20517;-41
2021/07/12 03:35:05;;;;;;;;;;;;;;;24.01;59.73;99209.06;2083671;28;19927;-41
2021/07/12 03:36:06;;;;;;;;;;;;;;;24.00;59.56;99199.13;2080676;28;20638;-41
2021/07/12 03:37:06;;;;;;;;;;;;;;;24.01;59.52;99200.81;2085112;28;19916;-41
2021/07/12 03:38:07;;;;;;;;;;;;;;;24.00;59.67;99199.97;2082831;28;19974;-42
2021/07/12 03:39:07;;;;;;;;;;;;;;;24.01;59.67;99211.81;2085775;28;20541;-42
2021/07/12 03:40:08;;;;;;;;;;;;;;;24.01;59.67;99209.06;2084908;28;19916;-42
2021/07/12 03:41:09;;;;;;;;;;;;;;;24.00;59.62;99210.97;2079549;28;20401;-42
2021/07/12 03:42:10;;;;;;;;;;;;;;;24.01;59.68;99212.69;2084204;28;20316;-42
2021/07/12 03:43:11;;;;;;;;;;;;;;;24.00;59.74;99210.13;2086142;28;20015;-43
2021/07/12 03:44:12;;;;;;;;;;;;;;;24.01;59.73;99211.81;2085229;28;20486;-42
2021/07/12 03:45:13;;;;;;;;;;;;;;;24.00;59.69;99210.97;2086649;28;19954;-42
2021/07/12 03:46:13;;;;;;;;;;;;;;;24.00;59.75;99207.38;2084735;28;19960;-41
2021/07/12 03:47:24;;;;;;;;;;;;;;;24.00;59.74;99210.97;2082442;28;20338;-42
2021/07/12 03:48:33;;;;;;;;;;;;;;;24.01;59.70;99209.06;2086177;28;19917;-42
2021/07/12 03:49:34;;;;;;;;;;;;;;;24.01;59.85;99200.81;2078123;28;20191;-41
2021/07/12 03:50:34;;;;;;;;;;;;;;;24.00;59.91;99204.63;2081922;28;20254;-42
2021/07/12 03:51:34;;;;;;;;;;;;;;;24.00;59.82;99210.13;2079031;28;20419;-42
2021/07/12 03:52:39;;;;;;;;;;;;;;;24.00;59.77;99199.13;2082413;28;19970;-41
2021/07/12 03:53:39;;;;;;;;;;;;;;;24.00;59.74;99207.38;2080839;28;20510;-42
2021/07/12 03:54:39;;;;;;;;;;;;;;;24.00;59.64;99204.63;2084282;28;20324;-42
2021/07/12 03:55:40;;;;;;;;;;;;;;;24.00;59.88;99199.13;2084913;28;19917;-41
2021/07/12 03:56:40;;;;;;;;;;;;;;;23.99;59.88;99209.28;2084556;28;20428;-42
2021/07/12 03:57:41;;;;;;;;;;;;;;;23.99;59.77;99202.94;2081661;28;20335;-42
2021/07/12 03:58:41;;;;;;;;;;;;;;;24.00;59.85;99210.13;2080294;28;20006;-42
2021/07/12 03:59:42;;;;;;;;;;;;;;;23.99;59.83;99201.03;2080582;28;19909;-42
2021/07/12 04:00:42;;;;;;;;;;;;;;;23.99;59.84;99205.69;2082532;28;19920;-42
2021/07/12 04:01:42;;;;;;;;;;;;;;;24.00;59.83;99199.13;2079769;28;20211;-42
2021/07/12 04:02:43;;;;;;;;;;;;;;;24.00;59.79;99207.38;2081848;28;19915;-42
2021/07/12 04:03:43;;;;;;;;;;;;;;;23.98;59.78;99191.06;2084724;28;20204;-42
2021/07/12 04:04:44;;;;;;;;;;;;;;;24.00;59.82;99199.13;2084193;28;19912;-42
2021/07/12 04:05:44;;;;;;;;;;;;;;;24.00;59.88;99193.63;2085230;28;20308;-42
2021/07/12 04:06:44;;;;;;;;;;;;;;;23.99;59.80;99191.94;2076778;28;20011;-42
2021/07/12 04:07:45;;;;;;;;;;;;;;;23.99;59.79;99197.44;2084086;28;19975;-42
2021/07/12 04:08:46;;;;;;;;;;;;;;;24.00;59.84;99201.88;2085212;28;20037;-42
2021/07/12 04:09:46;;;;;;;;;;;;;;;23.99;59.76;99201.03;2085147;28;19923;-42
2021/07/12 04:10:47;;;;;;;;;;;;;;;23.99;59.77;99209.28;2079975;28;19917;-42
2021/07/12 04:11:49;;;;;;;;;;;;;;;23.98;59.88;99207.56;2079281;28;20013;-42
2021/07/12 04:12:50;;;;;;;;;;;;;;;23.98;59.88;99207.56;2083856;28;19917;-42
2021/07/12 04:13:50;;;;;;;;;;;;;;;23.99;59.88;99211.19;2091690;28;20069;-42
2021/07/12 04:14:51;;;;;;;;;;;;;;;23.98;59.99;99212.25;2087195;28;19985;-42
2021/07/12 04:15:52;;;;;;;;;;;;;;;23.99;59.98;99219.47;2084553;28;19928;-42
2021/07/12 04:16:52;;;;;;;;;;;;;;;23.98;59.86;99218.59;2080592;28;19912;-42
2021/07/12 04:17:53;;;;;;;;;;;;;;;23.99;59.80;99219.47;2079307;28;19916;-42
2021/07/12 04:18:53;;;;;;;;;;;;;;;23.99;59.93;99219.47;2085219;28;19920;-41
2021/07/12 04:19:54;;;;;;;;;;;;;;;23.98;60.01;99213.09;2079168;28;19916;-42
2021/07/12 04:20:54;;;;;;;;;;;;;;;23.98;59.99;99223.25;2080008;28;20268;-42
2021/07/12 04:21:54;;;;;;;;;;;;;;;23.99;59.92;99225.81;2086449;28;19916;-41
2021/07/12 04:22:55;;;;;;;;;;;;;;;23.99;59.94;99222.22;2085357;28;19942;-42
2021/07/12 04:23:55;;;;;;;;;;;;;;;23.99;59.80;99224.97;2085406;28;20158;-42
2021/07/12 04:24:56;;;;;;;;;;;;;;;23.98;59.86;99229.59;2078608;28;20261;-43
2021/07/12 04:25:56;;;;;;;;;;;;;;;23.98;59.93;99228.75;2079087;28;19923;-43
2021/07/12 04:26:56;;;;;;;;;;;;;;;23.98;60.11;99228.75;2084815;28;19921;-41
2021/07/12 04:27:57;;;;;;;;;;;;;;;23.97;60.06;99227.91;2083042;28;20166;-42
2021/07/12 04:28:57;;;;;;;;;;;;;;;23.96;60.04;99229.81;2084839;28;19920;-42
2021/07/12 04:29:58;;;;;;;;;;;;;;;23.99;59.99;99235.97;2083978;28;19962;-42
2021/07/12 04:30:58;;;;;;;;;;;;;;;23.96;60.13;99227.06;2085106;28;20022;-41
2021/07/12 04:32:00;;;;;;;;;;;;;;;23.96;60.00;99231.72;2078911;28;20303;-42
2021/07/12 04:33:01;;;;;;;;;;;;;;;23.98;59.94;99226.00;2082913;28;19943;-42
2021/07/12 04:34:01;;;;;;;;;;;;;;;23.98;60.04;99220.50;2084872;28;19909;-41
2021/07/12 04:35:02;;;;;;;;;;;;;;;23.96;59.96;99227.06;2084498;28;19936;-42
2021/07/12 04:36:02;;;;;;;;;;;;;;;23.96;60.01;99232.56;2076439;28;20338;-42
2021/07/12 04:37:03;;;;;;;;;;;;;;;23.96;60.03;99231.72;2083456;28;20333;-42
2021/07/12 04:38:04;;;;;;;;;;;;;;;23.97;60.23;99227.91;2083945;28;19912;-41
2021/07/12 04:39:04;;;;;;;;;;;;;;;23.96;59.95;99224.31;2084096;28;20100;-41
2021/07/12 04:40:04;;;;;;;;;;;;;;;23.96;59.97;99238.06;2084618;28;19928;-41
2021/07/12 04:41:05;;;;;;;;;;;;;;;23.96;59.96;99232.56;2085045;28;20347;-42
2021/07/12 04:42:05;;;;;;;;;;;;;;;23.97;60.11;99227.91;2082902;28;19913;-42
2021/07/12 04:43:05;;;;;;;;;;;;;;;23.96;60.06;99228.97;2084659;28;19964;-42
2021/07/12 04:44:06;;;;;;;;;;;;;;;23.95;60.10;99230.84;2084165;28;19977;-42
2021/07/12 04:45:06;;;;;;;;;;;;;;;23.96;60.01;99238.06;2084057;28;19940;-42
2021/07/12 04:46:07;;;;;;;;;;;;;;;23.96;60.21;99228.97;2085589;28;20319;-41
2021/07/12 04:47:07;;;;;;;;;;;;;;;23.96;60.02;99235.31;2083306;28;20290;-45
2021/07/12 04:48:08;;;;;;;;;;;;;;;23.96;60.18;99228.97;2086708;28;19916;-42
2021/07/12 04:49:08;;;;;;;;;;;;;;;23.95;60.09;99225.34;2078264;28;20206;-42
2021/07/12 04:50:09;;;;;;;;;;;;;;;23.96;60.06;99227.06;2078198;28;19917;-42
2021/07/12 04:51:10;;;;;;;;;;;;;;;23.96;60.01;99227.06;2078095;28;20620;-41
2021/07/12 04:52:10;;;;;;;;;;;;;;;23.95;60.08;99225.34;2078283;28;19917;-41
2021/07/12 04:53:10;;;;;;;;;;;;;;;23.95;60.02;99228.09;2086203;28;20280;-41
2021/07/12 04:54:10;;;;;;;;;;;;;;;23.95;60.10;99228.09;2080141;28;19917;-42
2021/07/12 04:55:11;;;;;;;;;;;;;;;23.96;60.12;99226.22;2076796;28;20436;-42
2021/07/12 04:56:12;;;;;;;;;;;;;;;23.96;60.06;99231.72;2078300;28;19975;-41
2021/07/12 04:57:12;;;;;;;;;;;;;;;23.95;60.04;99230.84;2079226;28;19923;-42
2021/07/12 04:58:12;;;;;;;;;;;;;;;23.94;60.07;99226.41;2077942;28;19916;-41
2021/07/12 04:59:13;;;;;;;;;;;;;;;23.95;60.17;99230.84;2079307;28;19923;-42
2021/07/12 05:00:13;;;;;;;;;;;;;;;23.95;60.02;99233.59;2078282;28;19959;-42
2021/07/12 05:01:14;;;;;;;;;;;;;;;23.94;60.18;99234.66;2085233;28;19963;-42
2021/07/12 05:02:15;;;;;;;;;;;;;;;23.95;60.02;99238.25;2083356;28;19917;-41
2021/07/12 05:03:17;;;;;;;;;;;;;;;23.95;60.08;99238.25;2078317;28;19962;-42
2021/07/12 05:04:17;;;;;;;;;;;;;;;23.94;60.08;99231.91;2080894;28;20003;-42
2021/07/12 05:05:18;;;;;;;;;;;;;;;23.94;60.23;99245.69;2077165;28;19913;-42
2021/07/12 05:06:18;;;;;;;;;;;;;;;23.95;60.22;99247.38;2074749;28;20019;-42
2021/07/12 05:07:19;;;;;;;;;;;;;;;23.92;60.23;99247.78;2085697;28;19928;-42
2021/07/12 05:08:19;;;;;;;;;;;;;;;23.92;60.14;99242.28;2077206;28;20373;-41
2021/07/12 05:09:20;;;;;;;;;;;;;;;23.94;60.12;99244.84;2078384;28;19951;-42
2021/07/12 05:10:20;;;;;;;;;;;;;;;23.94;60.20;99239.34;2077454;28;19948;-41
2021/07/12 05:11:20;;;;;;;;;;;;;;;23.92;60.05;99242.28;2083575;28;19912;-42
2021/07/12 05:12:21;;;;;;;;;;;;;;;23.93;60.17;99240.38;2082822;28;19912;-42
2021/07/12 05:13:22;;;;;;;;;;;;;;;23.93;60.23;99241.25;2091396;28;20663;-42
2021/07/12 05:14:24;;;;;;;;;;;;;;;23.93;60.16;99248.63;2079774;28;20239;-42
2021/07/12 05:15:24;;;;;;;;;;;;;;;23.92;60.32;99247.78;2078498;28;19924;-42
2021/07/12 05:16:24;;;;;;;;;;;;;;;23.92;60.30;99242.28;2077946;28;19916;-43
2021/07/12 05:17:25;;;;;;;;;;;;;;;23.92;60.24;99242.28;2079125;28;20330;-43
2021/07/12 05:18:25;;;;;;;;;;;;;;;23.92;60.27;99242.28;2085319;28;20681;-42
2021/07/12 05:19:25;;;;;;;;;;;;;;;23.93;60.24;99244.00;2083453;28;19924;-43
2021/07/12 05:20:25;;;;;;;;;;;;;;;23.91;60.23;99246.09;2085168;28;19943;-42
2021/07/12 05:21:28;;;;;;;;;;;;;;;23.93;60.21;99251.38;2079675;28;19917;-43
2021/07/12 05:22:28;;;;;;;;;;;;;;;23.92;60.25;99247.78;2079721;28;20096;-44
2021/07/12 05:23:29;;;;;;;;;;;;;;;23.92;60.25;99250.53;2085529;28;19916;-42
2021/07/12 05:24:30;;;;;;;;;;;;;;;23.93;60.30;99245.88;2083010;28;19942;-42